sensor_id;sensor_type;location;lat;lon;timestamp;temperature;humidity
6865;DHT22;3471;49.678;8.388;2022-07-26T00:01:31;24.60;93.70
6865;DHT22;3471;49.678;8.388;2022-07-26T00:03:56;24.60;93.90
6865;DHT22;3471;49.678;8.388;2022-07-26T00:06:23;24.50;93.90
6865;DHT22;3471;49.678;8.388;2022-07-26T00:08:50;24.50;94.00
6865;DHT22;3471;49.678;8.388;2022-07-26T00:11:16;24.40;94.00
6865;DHT22;3471;49.678;8.388;2022-07-26T00:13:42;24.30;94.20
6865;DHT22;3471;49.678;8.388;2022-07-26T00:16:08;24.30;94.30
6865;DHT22;3471;49.678;8.388;2022-07-26T00:18:34;24.20;94.40
6865;DHT22;3471;49.678;8.388;2022-07-26T00:21:00;24.20;94.60
6865;DHT22;3471;49.678;8.388;2022-07-26T00:23:25;24.10;94.80
6865;DHT22;3471;49.678;8.388;2022-07-26T00:25:51;24.10;94.80
6865;DHT22;3471;49.678;8.388;2022-07-26T00:28:17;24.10;94.80
6865;DHT22;3471;49.678;8.388;2022-07-26T00:30:42;24.10;94.90
6865;DHT22;3471;49.678;8.388;2022-07-26T00:33:08;24.10;94.70
6865;DHT22;3471;49.678;8.388;2022-07-26T00:35:34;24.10;94.80
6865;DHT22;3471;49.678;8.388;2022-07-26T00:37:59;24.10;95.00
6865;DHT22;3471;49.678;8.388;2022-07-26T00:40:25;24.00;94.90
6865;DHT22;3471;49.678;8.388;2022-07-26T00:42:51;24.00;94.90
6865;DHT22;3471;49.678;8.388;2022-07-26T00:45:17;23.90;95.20
6865;DHT22;3471;49.678;8.388;2022-07-26T00:47:43;23.90;95.20
6865;DHT22;3471;49.678;8.388;2022-07-26T00:50:13;23.90;95.50
6865;DHT22;3471;49.678;8.388;2022-07-26T00:52:44;23.90;95.10
6865;DHT22;3471;49.678;8.388;2022-07-26T00:55:10;23.80;95.20
6865;DHT22;3471;49.678;8.388;2022-07-26T00:57:37;23.80;95.50
6865;DHT22;3471;49.678;8.388;2022-07-26T01:00:12;23.70;96.30
6865;DHT22;3471;49.678;8.388;2022-07-26T01:02:38;23.70;96.00
6865;DHT22;3471;49.678;8.388;2022-07-26T01:05:05;23.70;96.30
6865;DHT22;3471;49.678;8.388;2022-07-26T01:07:31;23.70;96.30
6865;DHT22;3471;49.678;8.388;2022-07-26T01:09:57;23.70;96.20
6865;DHT22;3471;49.678;8.388;2022-07-26T01:12:22;23.60;96.10
6865;DHT22;3471;49.678;8.388;2022-07-26T01:14:48;23.60;96.10
6865;DHT22;3471;49.678;8.388;2022-07-26T01:17:14;23.60;96.10
6865;DHT22;3471;49.678;8.388;2022-07-26T01:19:41;23.60;96.30
6865;DHT22;3471;49.678;8.388;2022-07-26T01:22:06;23.50;96.50
6865;DHT22;3471;49.678;8.388;2022-07-26T01:24:32;23.50;96.80
6865;DHT22;3471;49.678;8.388;2022-07-26T01:26:58;23.40;97.20
6865;DHT22;3471;49.678;8.388;2022-07-26T01:29:23;23.40;97.20
6865;DHT22;3471;49.678;8.388;2022-07-26T01:31:49;23.40;97.60
6865;DHT22;3471;49.678;8.388;2022-07-26T01:34:15;23.30;97.70
6865;DHT22;3471;49.678;8.388;2022-07-26T01:36:41;23.30;98.20
6865;DHT22;3471;49.678;8.388;2022-07-26T01:39:07;23.30;98.10
6865;DHT22;3471;49.678;8.388;2022-07-26T01:41:32;23.30;98.10
6865;DHT22;3471;49.678;8.388;2022-07-26T01:43:58;23.20;98.10
6865;DHT22;3471;49.678;8.388;2022-07-26T01:46:24;23.20;98.70
6865;DHT22;3471;49.678;8.388;2022-07-26T01:48:50;23.10;99.40
6865;DHT22;3471;49.678;8.388;2022-07-26T01:51:16;23.10;99.50
6865;DHT22;3471;49.678;8.388;2022-07-26T01:53:41;23.10;99.90
6865;DHT22;3471;49.678;8.388;2022-07-26T01:56:11;23.10;99.30
6865;DHT22;3471;49.678;8.388;2022-07-26T01:58:40;23.00;98.80
6865;DHT22;3471;49.678;8.388;2022-07-26T02:01:06;23.00;98.80
6865;DHT22;3471;49.678;8.388;2022-07-26T02:03:32;23.00;99.00
6865;DHT22;3471;49.678;8.388;2022-07-26T02:05:58;22.90;98.90
6865;DHT22;3471;49.678;8.388;2022-07-26T02:08:23;22.90;99.40
6865;DHT22;3471;49.678;8.388;2022-07-26T02:10:50;22.80;99.90
6865;DHT22;3471;49.678;8.388;2022-07-26T02:13:36;22.80;99.90
6865;DHT22;3471;49.678;8.388;2022-07-26T02:16:07;22.80;99.80
6865;DHT22;3471;49.678;8.388;2022-07-26T02:18:33;22.70;99.90
6865;DHT22;3471;49.678;8.388;2022-07-26T02:21:00;22.70;99.90
6865;DHT22;3471;49.678;8.388;2022-07-26T02:23:26;22.70;99.90
6865;DHT22;3471;49.678;8.388;2022-07-26T02:25:52;22.70;99.90
6865;DHT22;3471;49.678;8.388;2022-07-26T02:28:18;22.60;99.90
6865;DHT22;3471;49.678;8.388;2022-07-26T02:30:45;22.60;99.90
6865;DHT22;3471;49.678;8.388;2022-07-26T02:33:11;22.50;99.90
6865;DHT22;3471;49.678;8.388;2022-07-26T02:35:36;22.40;99.90
6865;DHT22;3471;49.678;8.388;2022-07-26T02:38:07;22.20;99.90
6865;DHT22;3471;49.678;8.388;2022-07-26T02:40:34;22.10;99.90
6865;DHT22;3471;49.678;8.388;2022-07-26T02:43:00;22.00;99.90
6865;DHT22;3471;49.678;8.388;2022-07-26T02:45:26;21.90;99.90
6865;DHT22;3471;49.678;8.388;2022-07-26T02:47:53;21.80;99.90
6865;DHT22;3471;49.678;8.388;2022-07-26T02:50:20;21.70;99.90
6865;DHT22;3471;49.678;8.388;2022-07-26T02:52:46;21.70;99.90
6865;DHT22;3471;49.678;8.388;2022-07-26T02:55:13;21.70;99.90
6865;DHT22;3471;49.678;8.388;2022-07-26T02:57:39;21.70;99.90
6865;DHT22;3471;49.678;8.388;2022-07-26T03:00:05;21.70;99.90
6865;DHT22;3471;49.678;8.388;2022-07-26T03:02:31;21.70;99.90
6865;DHT22;3471;49.678;8.388;2022-07-26T03:04:57;21.80;99.90
6865;DHT22;3471;49.678;8.388;2022-07-26T03:07:22;21.80;99.90
6865;DHT22;3471;49.678;8.388;2022-07-26T03:09:48;21.80;99.90
6865;DHT22;3471;49.678;8.388;2022-07-26T03:12:13;21.80;99.90
6865;DHT22;3471;49.678;8.388;2022-07-26T03:14:39;21.80;99.90
6865;DHT22;3471;49.678;8.388;2022-07-26T03:17:05;21.80;99.90
6865;DHT22;3471;49.678;8.388;2022-07-26T03:19:30;21.80;99.90
6865;DHT22;3471;49.678;8.388;2022-07-26T03:21:56;21.70;99.90
6865;DHT22;3471;49.678;8.388;2022-07-26T03:24:21;21.80;99.90
6865;DHT22;3471;49.678;8.388;2022-07-26T03:26:47;21.80;99.90
6865;DHT22;3471;49.678;8.388;2022-07-26T03:29:13;21.70;99.90
6865;DHT22;3471;49.678;8.388;2022-07-26T03:31:38;21.70;99.90
6865;DHT22;3471;49.678;8.388;2022-07-26T03:34:04;21.70;99.90
6865;DHT22;3471;49.678;8.388;2022-07-26T03:36:29;21.70;99.90
6865;DHT22;3471;49.678;8.388;2022-07-26T03:38:55;21.60;99.90
6865;DHT22;3471;49.678;8.388;2022-07-26T03:41:21;21.60;99.90
6865;DHT22;3471;49.678;8.388;2022-07-26T03:43:46;21.60;99.90
6865;DHT22;3471;49.678;8.388;2022-07-26T03:46:12;21.60;99.90
6865;DHT22;3471;49.678;8.388;2022-07-26T03:48:37;21.60;99.90
6865;DHT22;3471;49.678;8.388;2022-07-26T03:51:03;21.50;99.90
6865;DHT22;3471;49.678;8.388;2022-07-26T03:53:28;21.50;99.90
6865;DHT22;3471;49.678;8.388;2022-07-26T03:55:55;21.40;99.90
6865;DHT22;3471;49.678;8.388;2022-07-26T03:58:39;21.40;99.90
6865;DHT22;3471;49.678;8.388;2022-07-26T04:01:04;21.40;99.90
6865;DHT22;3471;49.678;8.388;2022-07-26T04:03:30;21.40;99.90
6865;DHT22;3471;49.678;8.388;2022-07-26T04:05:55;21.40;99.90
6865;DHT22;3471;49.678;8.388;2022-07-26T04:08:21;21.40;99.90
6865;DHT22;3471;49.678;8.388;2022-07-26T04:10:47;21.40;99.90
6865;DHT22;3471;49.678;8.388;2022-07-26T04:13:16;21.40;99.90
6865;DHT22;3471;49.678;8.388;2022-07-26T04:15:42;21.40;99.90
6865;DHT22;3471;49.678;8.388;2022-07-26T04:18:07;21.40;99.90
6865;DHT22;3471;49.678;8.388;2022-07-26T04:20:33;21.30;99.90
6865;DHT22;3471;49.678;8.388;2022-07-26T04:22:59;21.40;99.90
6865;DHT22;3471;49.678;8.388;2022-07-26T04:25:24;21.30;99.90
6865;DHT22;3471;49.678;8.388;2022-07-26T04:27:50;21.40;99.90
6865;DHT22;3471;49.678;8.388;2022-07-26T04:30:15;21.40;99.90
6865;DHT22;3471;49.678;8.388;2022-07-26T04:32:43;21.50;99.90
6865;DHT22;3471;49.678;8.388;2022-07-26T04:35:09;21.50;99.90
6865;DHT22;3471;49.678;8.388;2022-07-26T04:37:39;21.50;99.90
6865;DHT22;3471;49.678;8.388;2022-07-26T04:40:06;21.50;99.90
6865;DHT22;3471;49.678;8.388;2022-07-26T04:42:31;21.50;99.90
6865;DHT22;3471;49.678;8.388;2022-07-26T04:44:57;21.60;99.90
6865;DHT22;3471;49.678;8.388;2022-07-26T04:47:23;21.50;99.90
6865;DHT22;3471;49.678;8.388;2022-07-26T04:49:48;21.50;99.90
6865;DHT22;3471;49.678;8.388;2022-07-26T04:52:14;21.50;99.90
6865;DHT22;3471;49.678;8.388;2022-07-26T04:54:39;21.50;99.90
6865;DHT22;3471;49.678;8.388;2022-07-26T04:57:05;21.50;99.90
6865;DHT22;3471;49.678;8.388;2022-07-26T04:59:31;21.40;99.90
6865;DHT22;3471;49.678;8.388;2022-07-26T05:01:56;21.40;99.90
6865;DHT22;3471;49.678;8.388;2022-07-26T05:04:22;21.30;99.90
6865;DHT22;3471;49.678;8.388;2022-07-26T05:06:47;21.30;99.90
6865;DHT22;3471;49.678;8.388;2022-07-26T05:09:13;21.30;99.90
6865;DHT22;3471;49.678;8.388;2022-07-26T05:11:39;21.20;99.90
6865;DHT22;3471;49.678;8.388;2022-07-26T05:14:04;21.20;99.90
6865;DHT22;3471;49.678;8.388;2022-07-26T05:16:30;21.20;99.90
6865;DHT22;3471;49.678;8.388;2022-07-26T05:18:55;21.20;99.90
6865;DHT22;3471;49.678;8.388;2022-07-26T05:21:21;21.30;99.90
6865;DHT22;3471;49.678;8.388;2022-07-26T05:23:47;21.30;99.90
6865;DHT22;3471;49.678;8.388;2022-07-26T05:26:12;21.30;99.90
6865;DHT22;3471;49.678;8.388;2022-07-26T05:28:38;21.30;99.90
6865;DHT22;3471;49.678;8.388;2022-07-26T05:31:04;21.30;99.90
6865;DHT22;3471;49.678;8.388;2022-07-26T05:33:30;21.30;99.90
6865;DHT22;3471;49.678;8.388;2022-07-26T05:35:56;21.40;99.90
6865;DHT22;3471;49.678;8.388;2022-07-26T05:38:21;21.40;99.90
6865;DHT22;3471;49.678;8.388;2022-07-26T05:40:47;21.50;99.90
6865;DHT22;3471;49.678;8.388;2022-07-26T05:43:13;21.50;99.90
6865;DHT22;3471;49.678;8.388;2022-07-26T05:45:38;21.50;99.90
6865;DHT22;3471;49.678;8.388;2022-07-26T05:48:04;21.60;99.90
6865;DHT22;3471;49.678;8.388;2022-07-26T05:50:30;21.60;99.90
6865;DHT22;3471;49.678;8.388;2022-07-26T05:52:57;21.60;99.90
6865;DHT22;3471;49.678;8.388;2022-07-26T05:55:22;21.60;99.90
6865;DHT22;3471;49.678;8.388;2022-07-26T05:57:48;21.70;99.90
6865;DHT22;3471;49.678;8.388;2022-07-26T06:00:14;21.80;99.90
6865;DHT22;3471;49.678;8.388;2022-07-26T06:02:40;21.90;99.90
6865;DHT22;3471;49.678;8.388;2022-07-26T06:05:06;21.90;99.90
6865;DHT22;3471;49.678;8.388;2022-07-26T06:07:32;21.90;99.90
6865;DHT22;3471;49.678;8.388;2022-07-26T06:09:58;21.90;99.90
6865;DHT22;3471;49.678;8.388;2022-07-26T06:12:23;22.00;99.90
6865;DHT22;3471;49.678;8.388;2022-07-26T06:14:49;22.00;99.90
6865;DHT22;3471;49.678;8.388;2022-07-26T06:17:14;22.00;99.90
6865;DHT22;3471;49.678;8.388;2022-07-26T06:19:40;22.10;99.90
6865;DHT22;3471;49.678;8.388;2022-07-26T06:22:05;22.20;99.90
6865;DHT22;3471;49.678;8.388;2022-07-26T06:24:31;22.30;99.90
6865;DHT22;3471;49.678;8.388;2022-07-26T06:26:57;22.40;99.90
6865;DHT22;3471;49.678;8.388;2022-07-26T06:29:24;22.50;99.90
6865;DHT22;3471;49.678;8.388;2022-07-26T06:31:49;22.60;99.90
6865;DHT22;3471;49.678;8.388;2022-07-26T06:34:15;22.70;99.90
6865;DHT22;3471;49.678;8.388;2022-07-26T06:36:41;22.80;99.90
6865;DHT22;3471;49.678;8.388;2022-07-26T06:39:07;22.90;99.90
6865;DHT22;3471;49.678;8.388;2022-07-26T06:41:33;22.90;99.90
6865;DHT22;3471;49.678;8.388;2022-07-26T06:43:59;22.90;99.90
6865;DHT22;3471;49.678;8.388;2022-07-26T06:46:24;23.00;99.90
6865;DHT22;3471;49.678;8.388;2022-07-26T06:48:50;23.10;99.90
6865;DHT22;3471;49.678;8.388;2022-07-26T06:51:15;23.20;99.90
6865;DHT22;3471;49.678;8.388;2022-07-26T06:53:41;23.30;99.90
6865;DHT22;3471;49.678;8.388;2022-07-26T06:56:07;23.40;99.90
6865;DHT22;3471;49.678;8.388;2022-07-26T06:58:33;23.40;98.90
6865;DHT22;3471;49.678;8.388;2022-07-26T07:00:58;23.40;99.20
6865;DHT22;3471;49.678;8.388;2022-07-26T07:03:24;23.30;99.80
6865;DHT22;3471;49.678;8.388;2022-07-26T07:05:50;23.40;99.80
6865;DHT22;3471;49.678;8.388;2022-07-26T07:08:18;23.40;99.90
6865;DHT22;3471;49.678;8.388;2022-07-26T07:10:45;23.50;99.40
6865;DHT22;3471;49.678;8.388;2022-07-26T07:13:11;23.60;99.70
6865;DHT22;3471;49.678;8.388;2022-07-26T07:15:36;23.70;99.80
6865;DHT22;3471;49.678;8.388;2022-07-26T07:18:02;23.70;99.60
6865;DHT22;3471;49.678;8.388;2022-07-26T07:20:28;23.70;99.50
6865;DHT22;3471;49.678;8.388;2022-07-26T07:22:53;23.70;99.10
6865;DHT22;3471;49.678;8.388;2022-07-26T07:25:19;23.70;99.50
6865;DHT22;3471;49.678;8.388;2022-07-26T07:27:45;23.70;99.30
6865;DHT22;3471;49.678;8.388;2022-07-26T07:30:11;23.80;99.80
6865;DHT22;3471;49.678;8.388;2022-07-26T07:32:37;23.90;99.50
6865;DHT22;3471;49.678;8.388;2022-07-26T07:35:03;24.10;99.50
6865;DHT22;3471;49.678;8.388;2022-07-26T07:37:29;24.20;99.20
6865;DHT22;3471;49.678;8.388;2022-07-26T07:39:54;24.20;98.20
6865;DHT22;3471;49.678;8.388;2022-07-26T07:42:20;24.20;98.50
6865;DHT22;3471;49.678;8.388;2022-07-26T07:44:46;24.30;98.60
6865;DHT22;3471;49.678;8.388;2022-07-26T07:47:12;24.30;98.60
6865;DHT22;3471;49.678;8.388;2022-07-26T07:49:38;24.30;99.10
6865;DHT22;3471;49.678;8.388;2022-07-26T07:52:04;24.30;98.80
6865;DHT22;3471;49.678;8.388;2022-07-26T07:54:29;24.40;98.90
6865;DHT22;3471;49.678;8.388;2022-07-26T07:56:55;24.50;98.90
6865;DHT22;3471;49.678;8.388;2022-07-26T07:59:22;24.50;98.50
6865;DHT22;3471;49.678;8.388;2022-07-26T08:01:48;24.50;98.60
6865;DHT22;3471;49.678;8.388;2022-07-26T08:04:13;24.50;98.50
6865;DHT22;3471;49.678;8.388;2022-07-26T08:06:39;24.70;98.10
6865;DHT22;3471;49.678;8.388;2022-07-26T08:09:05;24.80;98.20
6865;DHT22;3471;49.678;8.388;2022-07-26T08:11:30;24.90;98.10
6865;DHT22;3471;49.678;8.388;2022-07-26T08:13:56;24.90;98.30
6865;DHT22;3471;49.678;8.388;2022-07-26T08:16:21;24.90;98.00
6865;DHT22;3471;49.678;8.388;2022-07-26T08:18:47;24.90;98.40
6865;DHT22;3471;49.678;8.388;2022-07-26T08:21:13;25.10;97.80
6865;DHT22;3471;49.678;8.388;2022-07-26T08:23:38;24.90;97.50
6865;DHT22;3471;49.678;8.388;2022-07-26T08:26:04;25.00;97.50
6865;DHT22;3471;49.678;8.388;2022-07-26T08:28:30;25.00;97.70
6865;DHT22;3471;49.678;8.388;2022-07-26T08:30:55;25.10;97.20
6865;DHT22;3471;49.678;8.388;2022-07-26T08:33:21;25.20;97.40
6865;DHT22;3471;49.678;8.388;2022-07-26T08:35:48;25.10;97.50
6865;DHT22;3471;49.678;8.388;2022-07-26T08:38:13;25.20;96.90
6865;DHT22;3471;49.678;8.388;2022-07-26T08:40:39;25.30;96.80
6865;DHT22;3471;49.678;8.388;2022-07-26T08:43:05;25.50;96.40
6865;DHT22;3471;49.678;8.388;2022-07-26T08:45:31;25.70;96.70
6865;DHT22;3471;49.678;8.388;2022-07-26T08:47:57;25.70;96.70
6865;DHT22;3471;49.678;8.388;2022-07-26T08:50:24;25.90;96.50
6865;DHT22;3471;49.678;8.388;2022-07-26T08:52:50;26.20;95.60
6865;DHT22;3471;49.678;8.388;2022-07-26T08:55:18;26.40;95.50
6865;DHT22;3471;49.678;8.388;2022-07-26T08:57:44;26.40;95.60
6865;DHT22;3471;49.678;8.388;2022-07-26T09:00:24;26.20;94.80
6865;DHT22;3471;49.678;8.388;2022-07-26T09:02:51;26.20;95.20
6865;DHT22;3471;49.678;8.388;2022-07-26T09:05:19;26.30;95.20
6865;DHT22;3471;49.678;8.388;2022-07-26T09:07:44;26.40;95.20
6865;DHT22;3471;49.678;8.388;2022-07-26T09:10:12;26.60;94.10
6865;DHT22;3471;49.678;8.388;2022-07-26T09:12:39;26.70;95.00
6865;DHT22;3471;49.678;8.388;2022-07-26T09:15:07;26.90;94.40
6865;DHT22;3471;49.678;8.388;2022-07-26T09:17:43;27.00;93.80
6865;DHT22;3471;49.678;8.388;2022-07-26T09:20:12;27.00;94.10
6865;DHT22;3471;49.678;8.388;2022-07-26T09:23:01;27.10;93.70
6865;DHT22;3471;49.678;8.388;2022-07-26T09:25:30;26.80;93.50
6865;DHT22;3471;49.678;8.388;2022-07-26T09:27:57;26.70;93.60
6865;DHT22;3471;49.678;8.388;2022-07-26T09:30:24;26.40;93.40
6865;DHT22;3471;49.678;8.388;2022-07-26T09:33:04;26.30;93.10
6865;DHT22;3471;49.678;8.388;2022-07-26T09:35:33;26.20;93.30
6865;DHT22;3471;49.678;8.388;2022-07-26T09:37:59;26.40;93.20
6865;DHT22;3471;49.678;8.388;2022-07-26T09:40:32;26.70;93.40
6865;DHT22;3471;49.678;8.388;2022-07-26T09:43:04;27.00;93.90
6865;DHT22;3471;49.678;8.388;2022-07-26T09:45:32;27.30;92.80
6865;DHT22;3471;49.678;8.388;2022-07-26T09:47:58;27.40;92.10
6865;DHT22;3471;49.678;8.388;2022-07-26T09:50:29;27.40;91.20
6865;DHT22;3471;49.678;8.388;2022-07-26T09:53:10;27.10;92.00
6865;DHT22;3471;49.678;8.388;2022-07-26T09:55:54;27.00;92.40
6865;DHT22;3471;49.678;8.388;2022-07-26T09:58:21;27.00;92.10
6865;DHT22;3471;49.678;8.388;2022-07-26T10:00:47;26.90;92.00
6865;DHT22;3471;49.678;8.388;2022-07-26T10:03:13;26.90;91.40
6865;DHT22;3471;49.678;8.388;2022-07-26T10:05:40;26.80;91.90
6865;DHT22;3471;49.678;8.388;2022-07-26T10:08:06;26.80;91.80
6865;DHT22;3471;49.678;8.388;2022-07-26T10:10:38;27.00;92.30
6865;DHT22;3471;49.678;8.388;2022-07-26T10:13:05;27.10;91.40
6865;DHT22;3471;49.678;8.388;2022-07-26T10:15:35;27.20;91.90
6865;DHT22;3471;49.678;8.388;2022-07-26T10:18:03;27.00;91.70
6865;DHT22;3471;49.678;8.388;2022-07-26T10:20:48;27.00;92.00
6865;DHT22;3471;49.678;8.388;2022-07-26T10:25:59;27.10;91.80
6865;DHT22;3471;49.678;8.388;2022-07-26T10:28:27;27.20;92.90
6865;DHT22;3471;49.678;8.388;2022-07-26T10:33:47;27.40;90.60
6865;DHT22;3471;49.678;8.388;2022-07-26T10:39:11;27.30;90.80
6865;DHT22;3471;49.678;8.388;2022-07-26T10:41:40;27.30;91.20
6865;DHT22;3471;49.678;8.388;2022-07-26T10:44:26;27.30;91.00
6865;DHT22;3471;49.678;8.388;2022-07-26T10:46:59;27.70;91.00
6865;DHT22;3471;49.678;8.388;2022-07-26T10:49:29;27.90;90.70
6865;DHT22;3471;49.678;8.388;2022-07-26T10:52:17;28.00;90.20
6865;DHT22;3471;49.678;8.388;2022-07-26T10:57:26;27.90;89.40
6865;DHT22;3471;49.678;8.388;2022-07-26T10:59:52;27.80;90.10
6865;DHT22;3471;49.678;8.388;2022-07-26T11:02:31;27.90;91.90
6865;DHT22;3471;49.678;8.388;2022-07-26T11:05:04;27.90;90.00
6865;DHT22;3471;49.678;8.388;2022-07-26T11:10:22;28.00;89.20
6865;DHT22;3471;49.678;8.388;2022-07-26T11:12:56;27.70;88.90
6865;DHT22;3471;49.678;8.388;2022-07-26T11:15:22;27.70;89.60
6865;DHT22;3471;49.678;8.388;2022-07-26T11:17:47;27.70;90.90
6865;DHT22;3471;49.678;8.388;2022-07-26T11:20:23;27.90;92.10
6865;DHT22;3471;49.678;8.388;2022-07-26T11:22:49;28.00;90.30
6865;DHT22;3471;49.678;8.388;2022-07-26T11:25:20;28.20;90.00
6865;DHT22;3471;49.678;8.388;2022-07-26T11:28:11;27.80;89.80
6865;DHT22;3471;49.678;8.388;2022-07-26T11:30:55;27.70;89.60
6865;DHT22;3471;49.678;8.388;2022-07-26T11:33:34;27.80;89.30
6865;DHT22;3471;49.678;8.388;2022-07-26T11:36:00;28.10;88.70
6865;DHT22;3471;49.678;8.388;2022-07-26T11:38:51;28.60;91.60
6865;DHT22;3471;49.678;8.388;2022-07-26T11:41:25;29.20;89.30
6865;DHT22;3471;49.678;8.388;2022-07-26T11:43:52;29.70;88.60
6865;DHT22;3471;49.678;8.388;2022-07-26T11:46:19;30.10;83.80
6865;DHT22;3471;49.678;8.388;2022-07-26T11:48:49;30.20;84.20
6865;DHT22;3471;49.678;8.388;2022-07-26T11:51:17;29.60;85.00
6865;DHT22;3471;49.678;8.388;2022-07-26T11:53:43;29.20;85.30
6865;DHT22;3471;49.678;8.388;2022-07-26T11:56:20;28.90;84.70
6865;DHT22;3471;49.678;8.388;2022-07-26T11:58:50;28.70;84.90
6865;DHT22;3471;49.678;8.388;2022-07-26T12:01:19;28.40;85.90
6865;DHT22;3471;49.678;8.388;2022-07-26T12:03:46;28.30;86.60
6865;DHT22;3471;49.678;8.388;2022-07-26T12:06:15;28.30;85.70
6865;DHT22;3471;49.678;8.388;2022-07-26T12:08:56;28.10;86.80
6865;DHT22;3471;49.678;8.388;2022-07-26T12:11:24;28.00;87.00
6865;DHT22;3471;49.678;8.388;2022-07-26T12:13:58;28.30;87.60
6865;DHT22;3471;49.678;8.388;2022-07-26T12:16:40;28.40;86.00
6865;DHT22;3471;49.678;8.388;2022-07-26T12:21:53;28.60;84.60
6865;DHT22;3471;49.678;8.388;2022-07-26T12:27:43;28.60;84.80
6865;DHT22;3471;49.678;8.388;2022-07-26T12:32:37;28.70;86.30
6865;DHT22;3471;49.678;8.388;2022-07-26T12:35:05;28.60;86.20
6865;DHT22;3471;49.678;8.388;2022-07-26T12:37:33;28.60;86.60
6865;DHT22;3471;49.678;8.388;2022-07-26T12:42:40;28.80;87.80
6865;DHT22;3471;49.678;8.388;2022-07-26T12:45:07;29.20;86.90
6865;DHT22;3471;49.678;8.388;2022-07-26T12:47:39;29.50;85.70
6865;DHT22;3471;49.678;8.388;2022-07-26T12:50:06;29.70;84.80
6865;DHT22;3471;49.678;8.388;2022-07-26T12:52:33;29.80;82.90
6865;DHT22;3471;49.678;8.388;2022-07-26T12:55:00;29.90;82.80
6865;DHT22;3471;49.678;8.388;2022-07-26T12:57:26;29.80;82.00
6865;DHT22;3471;49.678;8.388;2022-07-26T12:59:53;29.70;81.50
6865;DHT22;3471;49.678;8.388;2022-07-26T13:02:19;29.60;81.70
6865;DHT22;3471;49.678;8.388;2022-07-26T13:04:46;29.60;81.20
6865;DHT22;3471;49.678;8.388;2022-07-26T13:07:16;29.30;82.00
6865;DHT22;3471;49.678;8.388;2022-07-26T13:09:42;29.30;82.60
6865;DHT22;3471;49.678;8.388;2022-07-26T13:12:09;29.40;82.60
6865;DHT22;3471;49.678;8.388;2022-07-26T13:14:36;29.40;82.40
6865;DHT22;3471;49.678;8.388;2022-07-26T13:17:02;29.30;81.90
6865;DHT22;3471;49.678;8.388;2022-07-26T13:19:29;29.20;82.30
6865;DHT22;3471;49.678;8.388;2022-07-26T13:21:56;29.20;82.10
6865;DHT22;3471;49.678;8.388;2022-07-26T13:24:24;29.50;81.40
6865;DHT22;3471;49.678;8.388;2022-07-26T13:26:50;29.90;81.60
6865;DHT22;3471;49.678;8.388;2022-07-26T13:29:17;30.30;79.20
6865;DHT22;3471;49.678;8.388;2022-07-26T13:31:43;30.30;78.50
6865;DHT22;3471;49.678;8.388;2022-07-26T13:34:08;30.10;79.10
6865;DHT22;3471;49.678;8.388;2022-07-26T13:36:34;29.40;79.70
6865;DHT22;3471;49.678;8.388;2022-07-26T13:39:00;29.00;79.50
6865;DHT22;3471;49.678;8.388;2022-07-26T13:41:25;28.90;80.60
6865;DHT22;3471;49.678;8.388;2022-07-26T13:43:51;28.80;81.20
6865;DHT22;3471;49.678;8.388;2022-07-26T13:46:18;29.00;81.30
6865;DHT22;3471;49.678;8.388;2022-07-26T13:48:44;29.20;81.00
6865;DHT22;3471;49.678;8.388;2022-07-26T13:51:10;29.40;80.80
6865;DHT22;3471;49.678;8.388;2022-07-26T13:53:36;29.30;80.70
6865;DHT22;3471;49.678;8.388;2022-07-26T13:56:02;29.50;80.40
6865;DHT22;3471;49.678;8.388;2022-07-26T13:58:28;30.10;79.60
6865;DHT22;3471;49.678;8.388;2022-07-26T14:00:53;30.60;77.40
6865;DHT22;3471;49.678;8.388;2022-07-26T14:03:19;31.20;76.90
6865;DHT22;3471;49.678;8.388;2022-07-26T14:05:45;31.60;76.70
6865;DHT22;3471;49.678;8.388;2022-07-26T14:08:11;31.70;75.50
6865;DHT22;3471;49.678;8.388;2022-07-26T14:10:36;31.90;74.10
6865;DHT22;3471;49.678;8.388;2022-07-26T14:13:08;31.90;74.60
6865;DHT22;3471;49.678;8.388;2022-07-26T14:15:34;32.00;73.70
6865;DHT22;3471;49.678;8.388;2022-07-26T14:17:59;32.60;74.40
6865;DHT22;3471;49.678;8.388;2022-07-26T14:20:25;33.10;70.90
6865;DHT22;3471;49.678;8.388;2022-07-26T14:22:51;33.70;69.10
6865;DHT22;3471;49.678;8.388;2022-07-26T14:25:18;33.50;68.70
6865;DHT22;3471;49.678;8.388;2022-07-26T14:27:44;32.90;69.70
6865;DHT22;3471;49.678;8.388;2022-07-26T14:30:10;32.20;70.50
6865;DHT22;3471;49.678;8.388;2022-07-26T14:32:36;32.00;71.40
6865;DHT22;3471;49.678;8.388;2022-07-26T14:35:02;31.90;71.90
6865;DHT22;3471;49.678;8.388;2022-07-26T14:37:28;31.70;72.30
6865;DHT22;3471;49.678;8.388;2022-07-26T14:39:54;31.30;72.90
6865;DHT22;3471;49.678;8.388;2022-07-26T14:42:21;30.80;73.60
6865;DHT22;3471;49.678;8.388;2022-07-26T14:44:48;30.50;74.90
6865;DHT22;3471;49.678;8.388;2022-07-26T14:47:13;30.30;73.70
6865;DHT22;3471;49.678;8.388;2022-07-26T14:49:39;30.40;75.40
6865;DHT22;3471;49.678;8.388;2022-07-26T14:52:05;30.60;75.10
6865;DHT22;3471;49.678;8.388;2022-07-26T14:54:31;31.00;75.40
6865;DHT22;3471;49.678;8.388;2022-07-26T14:56:56;31.60;75.90
6865;DHT22;3471;49.678;8.388;2022-07-26T14:59:22;32.20;73.00
6865;DHT22;3471;49.678;8.388;2022-07-26T15:01:47;32.50;74.10
6865;DHT22;3471;49.678;8.388;2022-07-26T15:04:13;33.00;73.10
6865;DHT22;3471;49.678;8.388;2022-07-26T15:06:39;32.90;70.50
6865;DHT22;3471;49.678;8.388;2022-07-26T15:09:04;33.10;69.30
6865;DHT22;3471;49.678;8.388;2022-07-26T15:11:30;33.50;69.40
6865;DHT22;3471;49.678;8.388;2022-07-26T15:13:56;33.30;67.70
6865;DHT22;3471;49.678;8.388;2022-07-26T15:16:21;33.70;67.50
6865;DHT22;3471;49.678;8.388;2022-07-26T15:18:47;33.90;68.10
6865;DHT22;3471;49.678;8.388;2022-07-26T15:21:16;34.30;66.20
6865;DHT22;3471;49.678;8.388;2022-07-26T15:23:42;34.80;69.00
6865;DHT22;3471;49.678;8.388;2022-07-26T15:26:07;35.20;68.30
6865;DHT22;3471;49.678;8.388;2022-07-26T15:28:33;35.70;64.60
6865;DHT22;3471;49.678;8.388;2022-07-26T15:30:59;36.00;64.30
6865;DHT22;3471;49.678;8.388;2022-07-26T15:33:24;35.40;62.70
6865;DHT22;3471;49.678;8.388;2022-07-26T15:35:50;34.50;64.30
6865;DHT22;3471;49.678;8.388;2022-07-26T15:38:20;34.10;63.80
6865;DHT22;3471;49.678;8.388;2022-07-26T15:40:45;33.60;64.50
6865;DHT22;3471;49.678;8.388;2022-07-26T15:43:22;33.00;65.30
6865;DHT22;3471;49.678;8.388;2022-07-26T15:45:48;32.50;66.30
6865;DHT22;3471;49.678;8.388;2022-07-26T15:48:14;32.30;66.50
6865;DHT22;3471;49.678;8.388;2022-07-26T15:50:43;32.30;67.30
6865;DHT22;3471;49.678;8.388;2022-07-26T15:53:09;32.10;66.80
6865;DHT22;3471;49.678;8.388;2022-07-26T15:55:35;31.90;66.90
6865;DHT22;3471;49.678;8.388;2022-07-26T15:58:01;31.50;67.20
6865;DHT22;3471;49.678;8.388;2022-07-26T16:00:26;31.20;68.70
6865;DHT22;3471;49.678;8.388;2022-07-26T16:02:52;30.90;68.30
6865;DHT22;3471;49.678;8.388;2022-07-26T16:05:18;30.70;68.60
6865;DHT22;3471;49.678;8.388;2022-07-26T16:07:44;30.50;70.10
6865;DHT22;3471;49.678;8.388;2022-07-26T16:10:12;30.30;67.30
6865;DHT22;3471;49.678;8.388;2022-07-26T16:12:38;30.40;70.10
6865;DHT22;3471;49.678;8.388;2022-07-26T16:15:06;30.60;69.00
6865;DHT22;3471;49.678;8.388;2022-07-26T16:17:32;30.70;69.10
6865;DHT22;3471;49.678;8.388;2022-07-26T16:19:58;30.80;71.20
6865;DHT22;3471;49.678;8.388;2022-07-26T16:22:24;30.80;70.10
6865;DHT22;3471;49.678;8.388;2022-07-26T16:24:49;30.70;69.10
6865;DHT22;3471;49.678;8.388;2022-07-26T16:27:15;30.70;68.90